createdAt,value
2023-01-01T00:01:40.113Z,4.47
2023-01-01T00:04:15.251Z,4.90
2023-01-01T00:11:04.108Z,5.95
2023-01-01T00:13:32.586Z,5.80
2023-01-01T00:16:20.725Z,8.40
2023-01-01T00:18:49.580Z,9.32
2023-01-01T00:21:18.959Z,7.47
2023-01-01T00:23:47.552Z,6.07
2023-01-01T00:26:18.235Z,12.63
2023-01-01T00:28:48.017Z,11.73
2023-01-01T00:31:20.329Z,10.38
2023-01-01T00:33:53.549Z,6.32
2023-01-01T00:36:25.594Z,13.45
2023-01-01T00:38:54.191Z,7.97
2023-01-01T00:41:23.372Z,8.13
2023-01-01T00:43:52.479Z,7.05
2023-01-01T00:46:21.113Z,7.05
2023-01-01T00:48:49.345Z,7.00
2023-01-01T00:51:18.280Z,7.00
2023-01-01T00:53:46.605Z,14.40
2023-01-01T00:56:15.951Z,10.98
2023-01-01T00:58:45.839Z,15.98
2023-01-01T01:01:30.525Z,10.63
2023-01-01T01:04:02.487Z,24.40
2023-01-01T01:06:31.271Z,13.13
2023-01-01T01:08:59.864Z,13.48
2023-01-01T01:11:28.407Z,11.60
2023-01-01T01:13:57.303Z,8.07
2023-01-01T01:16:29.343Z,11.57
2023-01-01T01:19:00.491Z,8.63
2023-01-01T01:21:31.734Z,10.52
2023-01-01T01:24:01.099Z,9.10
2023-01-01T01:26:32.155Z,9.93
2023-01-01T01:29:00.530Z,9.50
2023-01-01T01:31:31.009Z,7.63
2023-01-01T01:33:59.422Z,8.15
2023-01-01T01:36:28.956Z,8.02
2023-01-01T01:38:57.462Z,7.60
2023-01-01T01:41:29.011Z,4.70
2023-01-01T01:44:00.743Z,6.35
2023-01-01T01:46:41.682Z,5.72
2023-01-01T01:49:21.865Z,6.18
2023-01-01T01:51:50.722Z,4.45
2023-01-01T01:54:22.870Z,4.82
2023-01-01T01:57:11.534Z,4.72
2023-01-01T01:59:44.270Z,5.13
2023-01-01T02:02:32.723Z,4.70
2023-01-01T02:05:01.760Z,4.60
2023-01-01T02:07:32.898Z,4.97
2023-01-01T02:10:02.391Z,4.35
2023-01-01T02:12:31.597Z,5.35
2023-01-01T02:15:00.125Z,5.38
2023-01-01T02:17:39.335Z,5.68
2023-01-01T02:20:58.938Z,5.85
2023-01-01T02:24:07.034Z,4.80
2023-01-01T02:27:01.719Z,4.40
2023-01-01T02:29:53.605Z,4.40
2023-01-01T02:32:27.121Z,4.13
2023-01-01T02:35:28.843Z,5.45
2023-01-01T02:38:00.949Z,5.53
2023-01-01T02:40:30.278Z,4.07
2023-01-01T02:42:58.817Z,5.88
2023-01-01T02:45:27.273Z,5.13
2023-01-01T02:47:55.391Z,5.22
2023-01-01T02:50:28.964Z,6.22
2023-01-01T02:53:06.887Z,4.53
2023-01-01T02:55:53.516Z,4.45
2023-01-01T03:01:49.762Z,6.22
2023-01-01T03:04:41.752Z,4.13
2023-01-01T03:07:22.958Z,4.43
2023-01-01T03:09:56.338Z,3.45
2023-01-01T03:12:45.906Z,4.30
2023-01-01T03:15:32.370Z,3.75
2023-01-01T03:18:07.106Z,3.20
2023-01-01T03:20:40.277Z,4.18
2023-01-01T03:23:16.014Z,3.03
2023-01-01T03:25:50.056Z,3.20
2023-01-01T03:28:28.823Z,3.03
2023-01-01T03:30:57.758Z,3.33
2023-01-01T03:33:34.923Z,3.20
2023-01-01T03:36:12.033Z,3.30
2023-01-01T03:38:42.825Z,3.45
2023-01-01T03:41:24.310Z,4.10
2023-01-01T03:44:03.428Z,3.50
2023-01-01T03:46:35.231Z,4.45
2023-01-01T03:49:08.105Z,2.78
2023-01-01T03:51:46.778Z,3.67
2023-01-01T03:54:38.788Z,3.00
2023-01-01T03:57:33.706Z,3.10
2023-01-01T04:00:16.713Z,3.53
2023-01-01T04:03:00.063Z,2.97
2023-01-01T04:05:30.981Z,3.00
2023-01-01T04:08:03.152Z,3.10
2023-01-01T04:10:34.632Z,3.47
2023-01-01T04:13:06.034Z,3.42
2023-01-01T04:15:36.210Z,3.33
2023-01-01T04:18:04.809Z,3.10
2023-01-01T04:20:33.612Z,3.40
2023-01-01T04:23:02.483Z,3.50
2023-01-01T04:25:31.727Z,3.40
2023-01-01T04:27:59.934Z,3.78
2023-01-01T04:30:28.358Z,3.15
2023-01-01T04:32:57.393Z,3.75
2023-01-01T04:35:25.628Z,3.55
2023-01-01T04:37:54.019Z,4.05
2023-01-01T04:40:22.549Z,3.20
2023-01-01T04:42:54.547Z,4.05
2023-01-01T04:45:23.127Z,4.63
2023-01-01T04:47:51.715Z,4.20
2023-01-01T04:50:20.040Z,3.63
2023-01-01T04:52:51.409Z,3.35
2023-01-01T04:55:20.732Z,4.32
2023-01-01T04:57:49.891Z,3.63
2023-01-01T05:00:19.298Z,2.92
2023-01-01T05:02:48.251Z,3.30
2023-01-01T05:05:19.201Z,3.45
2023-01-01T05:07:48.157Z,4.10
2023-01-01T05:10:16.583Z,3.80
2023-01-01T05:12:45.352Z,4.60
2023-01-01T05:15:13.832Z,3.80
2023-01-01T05:17:42.535Z,3.05
2023-01-01T05:20:11.149Z,3.75
2023-01-01T05:22:39.698Z,3.28
2023-01-01T05:25:08.319Z,3.30
2023-01-01T05:27:37.185Z,3.72
2023-01-01T05:30:06.103Z,2.80
2023-01-01T05:32:34.752Z,3.95
2023-01-01T05:35:03.009Z,4.93
2023-01-01T05:37:31.737Z,3.42
2023-01-01T05:40:00.077Z,3.10
2023-01-01T05:42:28.788Z,3.50
2023-01-01T05:44:57.155Z,3.05
2023-01-01T05:47:29.620Z,3.42
2023-01-01T05:49:58.300Z,3.38
2023-01-01T05:52:27.228Z,3.35
2023-01-01T05:54:55.552Z,4.53
2023-01-01T05:57:24.190Z,5.35
2023-01-01T05:59:52.704Z,4.75
2023-01-01T06:02:21.914Z,3.97
2023-01-01T06:04:50.340Z,4.60
2023-01-01T06:07:19.034Z,5.63
2023-01-01T06:09:47.363Z,4.18
2023-01-01T06:12:15.923Z,3.70
2023-01-01T06:14:44.343Z,4.63
2023-01-01T06:17:14.238Z,5.95
2023-01-01T06:19:42.563Z,5.38
2023-01-01T06:22:11.315Z,3.92
2023-01-01T06:24:39.630Z,4.47
2023-01-01T06:27:08.274Z,4.38
2023-01-01T06:29:36.615Z,4.10
2023-01-01T06:32:06.623Z,4.13
2023-01-01T06:34:35.222Z,5.00
2023-01-01T06:37:07.024Z,4.93
2023-01-01T06:39:35.527Z,4.07
2023-01-01T06:42:04.204Z,5.22
2023-01-01T06:44:32.526Z,6.72
2023-01-01T06:47:01.800Z,4.75
2023-01-01T06:49:30.263Z,5.10
2023-01-01T06:51:59.313Z,4.70
2023-01-01T06:54:27.666Z,5.20
2023-01-01T06:56:56.340Z,11.68
2023-01-01T06:59:24.667Z,5.25
2023-01-01T07:01:53.462Z,8.55
2023-01-01T07:04:24.797Z,10.38
2023-01-01T07:07:14.403Z,6.45
2023-01-01T07:09:44.852Z,13.80
2023-01-01T07:12:13.979Z,16.10
2023-01-01T07:14:42.341Z,14.55
2023-01-01T07:20:07.344Z,9.77
2023-01-01T07:22:41.339Z,16.60
2023-01-01T07:26:07.614Z,11.60
2023-01-01T07:28:44.062Z,18.17
2023-01-01T07:31:12.949Z,12.73
2023-01-01T07:33:47.100Z,12.80
2023-01-01T07:36:29.672Z,9.23
2023-01-01T07:39:16.913Z,9.15
2023-01-01T07:41:46.090Z,11.15
2023-01-01T07:44:15.586Z,10.90
2023-01-01T07:46:45.737Z,9.82
2023-01-01T07:49:14.476Z,9.00
2023-01-01T07:51:43.132Z,8.63
2023-01-01T07:55:02.956Z,5.32
2023-01-01T07:57:34.420Z,8.48
2023-01-01T08:00:12.190Z,6.25
2023-01-01T08:02:46.549Z,9.40
2023-01-01T08:06:30.845Z,5.50
2023-01-01T08:08:59.200Z,5.43
2023-01-01T08:11:27.784Z,8.93
2023-01-01T08:13:56.410Z,11.38
2023-01-01T08:16:25.121Z,7.03
2023-01-01T08:18:53.788Z,5.57
2023-01-01T08:21:29.081Z,5.25
2023-01-01T08:23:57.542Z,5.03
2023-01-01T08:26:34.019Z,6.78
2023-01-01T08:29:08.800Z,6.18
2023-01-01T08:31:37.405Z,8.35
2023-01-01T08:34:05.745Z,9.50
2023-01-01T08:36:34.858Z,10.43
2023-01-01T08:39:03.815Z,8.68
2023-01-01T08:41:32.483Z,7.07
2023-01-01T08:44:00.867Z,9.18
2023-01-01T08:46:29.687Z,8.98
2023-01-01T08:48:58.341Z,6.13
2023-01-01T08:51:27.081Z,5.20
2023-01-01T08:53:55.963Z,5.35
2023-01-01T08:56:25.050Z,10.90
2023-01-01T08:58:56.127Z,6.40
2023-01-01T09:01:38.304Z,8.40
2023-01-01T09:04:15.166Z,6.97
2023-01-01T09:06:44.374Z,6.90
2023-01-01T09:09:12.917Z,6.80
2023-01-01T09:11:50.760Z,28.25
2023-01-01T09:14:19.338Z,15.95
2023-01-01T09:16:59.819Z,9.98
2023-01-01T09:19:28.445Z,8.77
2023-01-01T09:21:57.202Z,8.75
2023-01-01T09:24:25.705Z,10.43
2023-01-01T09:26:54.425Z,12.18
2023-01-01T09:29:23.012Z,8.00
2023-01-01T09:31:53.883Z,9.55
2023-01-01T09:34:30.019Z,7.72
2023-01-01T09:36:58.614Z,7.80
2023-01-01T09:39:26.948Z,9.27
2023-01-01T09:42:46.191Z,10.10
2023-01-01T09:53:49.742Z,6.95
2023-01-01T09:56:25.014Z,9.38
2023-01-01T10:01:38.888Z,6.32
2023-01-01T10:04:10.691Z,5.25
2023-01-01T10:06:41.904Z,5.03
2023-01-01T10:10:14.268Z,7.75
2023-01-01T10:16:48.971Z,9.77
2023-01-01T10:19:20.508Z,6.50
2023-01-01T10:21:49.828Z,4.80
2023-01-01T10:24:24.255Z,5.95
2023-01-01T10:27:06.730Z,4.65
2023-01-01T10:29:49.221Z,5.93
2023-01-01T10:32:19.696Z,5.55
2023-01-01T10:34:50.061Z,5.70
2023-01-01T10:37:21.432Z,6.15
2023-01-01T10:39:56.842Z,4.20
2023-01-01T10:42:27.090Z,5.05
2023-01-01T10:44:57.748Z,5.00
2023-01-01T10:47:28.430Z,7.35
2023-01-01T10:49:58.541Z,4.30
2023-01-01T10:52:35.351Z,5.20
2023-01-01T10:55:04.650Z,3.92
2023-01-01T10:57:37.984Z,5.53
2023-01-01T11:00:15.911Z,6.38
2023-01-01T11:02:45.010Z,6.53
2023-01-01T11:05:21.543Z,5.63
2023-01-01T11:07:51.469Z,6.45
2023-01-01T11:10:22.152Z,5.32
2023-01-01T11:13:08.121Z,6.75
2023-01-01T11:15:41.579Z,8.43
2023-01-01T11:18:16.053Z,8.65
2023-01-01T11:20:45.218Z,9.32
2023-01-01T11:23:26.135Z,7.53
2023-01-01T11:26:00.565Z,9.90
2023-01-01T11:28:31.919Z,8.15
2023-01-01T11:31:00.404Z,10.68
2023-01-01T11:33:31.466Z,5.30
2023-01-01T11:36:00.446Z,7.47
2023-01-01T11:38:30.373Z,6.78
2023-01-01T11:41:04.138Z,8.90
2023-01-01T11:43:38.580Z,9.98
2023-01-01T11:46:18.892Z,11.50
2023-01-01T11:48:47.569Z,11.18
2023-01-01T11:51:34.672Z,12.25
2023-01-01T11:54:13.714Z,13.02
2023-01-01T11:56:50.296Z,10.65
2023-01-01T11:59:21.903Z,9.18
2023-01-01T12:01:56.542Z,9.45
2023-01-01T12:04:38.462Z,9.63
2023-01-01T12:07:19.253Z,10.32
2023-01-01T12:09:54.011Z,13.23
2023-01-01T12:12:25.356Z,12.75
2023-01-01T12:14:54.447Z,14.85
2023-01-01T12:17:40.716Z,10.30
2023-01-01T12:25:15.891Z,8.48
2023-01-01T12:27:48.020Z,11.98
2023-01-01T12:30:21.291Z,10.98
2023-01-01T12:33:05.646Z,10.95
2023-01-01T12:35:43.166Z,9.73
2023-01-01T12:38:16.029Z,8.18
2023-01-01T12:41:09.957Z,7.85
2023-01-01T12:43:41.572Z,10.15
2023-01-01T12:46:33.368Z,10.65
2023-01-01T12:49:15.778Z,9.13
2023-01-01T12:52:03.194Z,12.75
2023-01-01T12:54:51.727Z,21.13
2023-01-01T12:57:32.257Z,19.42
2023-01-01T13:00:02.700Z,27.33
2023-01-01T13:02:38.011Z,20.70
2023-01-01T13:05:19.730Z,19.33
2023-01-01T13:07:50.078Z,12.23
2023-01-01T13:10:30.669Z,22.70
2023-01-01T13:12:59.381Z,19.50
2023-01-01T13:15:41.615Z,25.48
2023-01-01T13:18:16.469Z,39.15
2023-01-01T13:20:56.063Z,24.47
2023-01-01T13:23:35.149Z,24.75
2023-01-01T13:26:23.231Z,23.45
2023-01-01T13:29:05.636Z,27.88
2023-01-01T13:31:41.331Z,30.15
2023-01-01T13:34:28.820Z,24.65
2023-01-01T13:37:19.343Z,29.13
2023-01-01T13:39:57.915Z,29.45
2023-01-01T13:42:52.434Z,50.85
2023-01-01T13:46:09.804Z,35.00
2023-01-01T13:48:26.098Z,31.73
2023-01-01T13:51:03.956Z,33.83
2023-01-01T13:53:45.127Z,35.63
2023-01-01T13:56:25.722Z,37.20
2023-01-01T13:59:07.871Z,26.80
2023-01-01T14:01:42.836Z,35.60
2023-01-01T14:04:33.093Z,27.85
2023-01-01T14:07:24.868Z,24.40
2023-01-01T14:09:54.090Z,30.50
2023-01-01T14:12:22.502Z,13.75
2023-01-01T14:14:51.124Z,10.93
2023-01-01T14:17:20.649Z,11.38
2023-01-01T14:19:49.972Z,13.40
2023-01-01T14:23:02.015Z,21.60
2023-01-01T14:25:33.771Z,16.08
2023-01-01T14:28:02.216Z,21.25
2023-01-01T14:30:32.750Z,18.27
2023-01-01T14:33:01.944Z,13.48
2023-01-01T14:35:30.820Z,29.40
2023-01-01T14:38:17.046Z,13.55
2023-01-01T14:40:45.791Z,13.38
2023-01-01T14:43:14.938Z,27.45
2023-01-01T14:45:44.541Z,17.52
2023-01-01T14:48:20.222Z,18.00
2023-01-01T14:50:50.685Z,21.85
2023-01-01T14:53:33.441Z,18.52
2023-01-01T14:56:11.698Z,28.30
2023-01-01T14:58:42.827Z,30.80
2023-01-01T15:01:16.942Z,25.73
2023-01-01T15:03:59.655Z,20.17
2023-01-01T15:06:29.313Z,49.38
2023-01-01T15:08:58.028Z,43.03
2023-01-01T15:11:29.323Z,25.45
2023-01-01T15:14:01.891Z,14.45
2023-01-01T15:16:39.951Z,18.75
2023-01-01T15:19:19.545Z,24.98
2023-01-01T15:21:48.634Z,34.92
2023-01-01T15:24:27.640Z,29.13
2023-01-01T15:26:58.189Z,19.08
2023-01-01T15:29:30.707Z,20.92
2023-01-01T15:32:05.062Z,18.80
2023-01-01T15:34:43.467Z,74.22
2023-01-01T15:37:18.435Z,53.00
2023-01-01T15:39:58.690Z,83.95
2023-01-01T15:42:33.576Z,38.97
2023-01-01T15:45:17.058Z,35.75
2023-01-01T15:47:47.280Z,27.55
2023-01-01T15:50:18.701Z,17.23
2023-01-01T15:52:55.035Z,21.98
2023-01-01T15:55:47.161Z,15.07
2023-01-01T15:58:20.787Z,13.52
2023-01-01T16:00:57.794Z,13.38
2023-01-01T16:03:29.432Z,12.77
2023-01-01T16:05:58.455Z,22.02
2023-01-01T16:08:28.803Z,51.80
2023-01-01T16:10:57.116Z,37.65
2023-01-01T16:13:25.925Z,53.15
2023-01-01T16:15:57.954Z,21.42
2023-01-01T16:18:38.245Z,16.05
2023-01-01T16:21:09.578Z,22.08
2023-01-01T16:23:39.260Z,16.70
2023-01-01T16:26:07.652Z,57.72
2023-01-01T16:28:36.254Z,44.17
2023-01-01T16:31:11.911Z,19.65
2023-01-01T16:33:48.641Z,9.75
2023-01-01T16:36:17.196Z,10.55
2023-01-01T16:38:45.858Z,31.55
2023-01-01T16:41:18.048Z,53.50
2023-01-01T16:43:47.357Z,62.97
2023-01-01T16:46:16.053Z,66.47
2023-01-01T16:48:52.091Z,74.82
2023-01-01T16:51:21.554Z,65.50
2023-01-01T16:53:50.209Z,61.63
2023-01-01T16:56:18.583Z,53.58
2023-01-01T16:58:49.657Z,36.92
2023-01-01T17:01:19.508Z,20.77
2023-01-01T17:03:48.421Z,23.98
2023-01-01T17:06:17.022Z,19.23
2023-01-01T17:08:45.715Z,19.83
2023-01-01T17:11:16.911Z,16.65
2023-01-01T17:13:46.737Z,16.85
2023-01-01T17:16:23.278Z,20.05
2023-01-01T17:19:14.403Z,25.27
2023-01-01T17:21:44.344Z,21.23
2023-01-01T17:24:18.993Z,26.83
2023-01-01T17:26:52.813Z,21.40
2023-01-01T17:29:21.921Z,19.55
2023-01-01T17:31:52.104Z,25.88
2023-01-01T17:34:21.306Z,23.80
2023-01-01T17:36:49.938Z,19.10
2023-01-01T17:39:18.727Z,17.38
2023-01-01T17:41:47.161Z,18.63
2023-01-01T17:44:15.877Z,17.88
2023-01-01T17:46:44.722Z,19.25
2023-01-01T17:49:13.669Z,25.88
2023-01-01T17:51:42.397Z,27.50
2023-01-01T17:54:13.878Z,30.05
2023-01-01T17:56:43.101Z,33.75
2023-01-01T17:59:12.341Z,31.63
2023-01-01T18:01:45.600Z,32.50
2023-01-01T18:04:14.531Z,34.30
2023-01-01T18:06:44.323Z,49.13
2023-01-01T18:09:17.079Z,46.92
2023-01-01T18:11:47.049Z,38.83
2023-01-01T18:14:26.685Z,43.35
2023-01-01T18:16:56.979Z,47.45
2023-01-01T18:19:27.897Z,63.22
2023-01-01T18:21:56.442Z,53.65
2023-01-01T18:27:38.248Z,46.10
2023-01-01T18:30:07.763Z,38.35
2023-01-01T18:32:43.550Z,32.72
2023-01-01T18:35:13.459Z,45.97
2023-01-01T18:37:43.878Z,34.10
2023-01-01T18:40:17.111Z,30.55
2023-01-01T18:43:13.498Z,23.95
2023-01-01T18:45:42.492Z,21.30
2023-01-01T18:48:13.703Z,24.77
2023-01-01T18:50:45.125Z,31.30
2023-01-01T18:53:28.769Z,33.80
2023-01-01T18:56:07.340Z,32.45
2023-01-01T18:58:47.155Z,24.77
2023-01-01T19:01:20.981Z,24.77
2023-01-01T19:03:57.554Z,26.23
2023-01-01T19:06:28.666Z,28.02
2023-01-01T19:09:17.836Z,27.70
2023-01-01T19:11:51.401Z,60.95
2023-01-01T19:14:41.705Z,130.70
2023-01-01T19:17:14.384Z,129.63
2023-01-01T19:19:43.114Z,140.85
2023-01-01T19:22:21.307Z,88.97
2023-01-01T19:24:51.766Z,126.38
2023-01-01T19:27:23.818Z,76.72
2023-01-01T19:29:53.210Z,73.47
2023-01-01T19:32:22.549Z,61.40
2023-01-01T19:34:56.745Z,45.60
2023-01-01T19:37:25.758Z,37.30
2023-01-01T19:39:54.371Z,41.30
2023-01-01T19:42:23.255Z,31.75
2023-01-01T19:44:51.805Z,33.38
2023-01-01T19:47:20.581Z,39.00
2023-01-01T19:49:55.268Z,44.13
2023-01-01T19:52:24.538Z,54.10
2023-01-01T19:54:52.913Z,41.40
2023-01-01T19:57:21.742Z,36.72
2023-01-01T19:59:50.205Z,33.28
2023-01-01T20:02:44.904Z,31.42
2023-01-01T20:05:08.066Z,31.23
2023-01-01T20:07:37.464Z,22.45
2023-01-01T20:10:06.579Z,25.80
2023-01-01T20:12:35.623Z,30.45
2023-01-01T20:15:11.112Z,27.52
2023-01-01T20:17:40.063Z,26.00
2023-01-01T20:20:11.596Z,28.27
2023-01-01T20:22:48.810Z,20.48
2023-01-01T20:25:54.986Z,31.55
2023-01-01T20:28:44.433Z,33.50
2023-01-01T20:31:20.925Z,38.13
2023-01-01T20:33:50.334Z,38.70
2023-01-01T20:36:37.823Z,42.00
2023-01-01T20:39:06.820Z,32.75
2023-01-01T20:41:36.605Z,24.08
2023-01-01T20:44:05.948Z,33.72
2023-01-01T20:46:36.197Z,26.17
2023-01-01T20:49:07.521Z,26.45
2023-01-01T20:51:50.336Z,31.17
2023-01-01T20:54:39.960Z,35.28
2023-01-01T20:57:09.393Z,20.15
2023-01-01T20:59:48.367Z,44.25
2023-01-01T21:02:48.548Z,24.02
2023-01-01T21:05:28.045Z,49.15
2023-01-01T21:07:56.785Z,23.60
2023-01-01T21:10:25.884Z,21.52
2023-01-01T21:12:54.364Z,32.35
2023-01-01T21:15:22.664Z,26.17
2023-01-01T21:17:51.739Z,31.27
2023-01-01T21:20:20.523Z,26.15
2023-01-01T21:22:49.423Z,24.65
2023-01-01T21:25:50.623Z,18.40
2023-01-01T21:32:31.553Z,16.60
2023-01-01T21:35:01.326Z,20.33
2023-01-01T21:37:50.908Z,22.33
2023-01-01T21:40:31.135Z,31.10
2023-01-01T21:43:08.802Z,21.02
2023-01-01T21:45:37.730Z,24.73
2023-01-01T21:48:15.786Z,32.22
2023-01-01T21:50:46.624Z,18.00
2023-01-01T21:53:21.684Z,21.50
2023-01-01T21:55:52.443Z,23.38
2023-01-01T21:58:46.333Z,21.05
2023-01-01T22:01:28.944Z,22.50
2023-01-01T22:04:07.247Z,20.98
2023-01-01T22:06:49.502Z,20.13
2023-01-01T22:09:25.885Z,19.60
2023-01-01T22:11:57.926Z,53.63
2023-01-01T22:14:28.467Z,25.67
2023-01-01T22:17:07.506Z,34.45
2023-01-01T22:19:38.144Z,35.97
2023-01-01T22:22:12.633Z,30.90
2023-01-01T22:24:41.428Z,34.30
2023-01-01T22:27:25.991Z,24.50
2023-01-01T22:29:55.089Z,15.38
2023-01-01T22:32:29.143Z,17.60
2023-01-01T22:35:07.692Z,19.15
2023-01-01T22:38:03.894Z,18.45
2023-01-01T22:40:35.394Z,17.50
2023-01-01T22:43:13.413Z,20.20
2023-01-01T22:45:55.493Z,22.70
2023-01-01T22:48:27.928Z,20.00
2023-01-01T22:51:01.196Z,21.88
2023-01-01T22:53:30.487Z,18.42
2023-01-01T22:55:59.267Z,18.17
2023-01-01T22:58:35.643Z,18.83
2023-01-01T23:01:04.167Z,21.02
2023-01-01T23:03:33.181Z,18.08
2023-01-01T23:06:04.971Z,16.23
2023-01-01T23:08:37.924Z,17.52
2023-01-01T23:11:06.997Z,17.23
2023-01-01T23:13:55.989Z,17.48
2023-01-01T23:16:24.613Z,14.23
2023-01-01T23:18:53.771Z,28.05
2023-01-01T23:21:27.094Z,19.58
2023-01-01T23:24:03.994Z,16.17
2023-01-01T23:29:02.007Z,12.88
2023-01-01T23:31:31.517Z,15.32
2023-01-01T23:34:00.488Z,22.63
2023-01-01T23:36:29.534Z,17.75
2023-01-01T23:39:17.194Z,16.42
2023-01-01T23:41:45.952Z,15.23
2023-01-01T23:44:15.146Z,17.75
2023-01-01T23:46:44.035Z,19.00
2023-01-01T23:49:13.067Z,17.23
2023-01-01T23:51:41.825Z,17.00
2023-01-01T23:54:10.768Z,18.05
2023-01-01T23:56:38.993Z,17.10
2023-01-01T23:59:07.793Z,21.17
